Time;durP1;ratioP1;P1;durP2;ratioP2;P2;SDS_P1;SDS_P2;PMS_P1;PMS_P2;Temp;Humidity;BMP_temperature;BMP_pressure;BME280_temperature;BME280_humidity;BME280_pressure;Samples;Min_cycle;Max_cycle;Signal;HPM_P1;HPM_P2
2022/04/29 00:00:05;;;;;;;;;;;16.30;76.60;16.50;100218.00;;;;343494;28;83475;-84
2022/04/29 00:00:18;;;;;;;;;;;16.30;76.50;16.60;100219.00;;;;342878;28;89824;-85
2022/04/29 00:00:30;;;;;;;;;;;16.30;76.40;16.60;100224.00;;;;343034;28;83613;-84
2022/04/29 00:00:42;;;;;;;;;;;16.30;76.50;16.60;100225.00;;;;342760;28;88880;-84
2022/04/29 00:00:54;;;;;;;;;;;16.30;76.40;16.60;100215.00;;;;345775;28;83227;-85
2022/04/29 00:01:06;;;;;;;;;;;16.30;76.60;16.60;100219.00;;;;341587;28;89166;-85
2022/04/29 00:01:18;;;;;;;;;;;16.30;76.60;16.60;100219.00;;;;341970;28;83334;-84
2022/04/29 00:01:30;;;;;;;;;;;16.30;76.40;16.60;100221.00;;;;344195;28;89579;-84
2022/04/29 00:01:42;;;;;;;;;;;16.30;76.30;16.60;100214.00;;;;343191;28;83508;-84
2022/04/29 00:01:54;;;;;;;;;;;16.30;76.30;16.60;100223.00;;;;342948;28;86685;-85
2022/04/29 00:02:09;;;;;;;;;;;16.30;76.30;16.60;100218.00;;;;344214;28;83565;-86
2022/04/29 00:02:24;;;;;;;;;;;16.30;76.60;16.60;100222.00;;;;343958;28;90047;-84
2022/04/29 00:02:36;;;;;;;;;;;16.30;77.20;16.60;100223.00;;;;342064;28;83331;-84
2022/04/29 00:02:48;;;;;;;;;;;16.30;76.80;16.60;100222.00;;;;341536;28;89194;-85
2022/04/29 00:03:00;;;;;;;;;;;16.30;76.70;16.60;100216.00;;;;342031;28;82364;-84
2022/04/29 00:03:13;;;;;;;;;;;16.30;76.60;16.70;100214.00;;;;342903;28;89479;-84
2022/04/29 00:03:25;;;;;;;;;;;16.30;76.70;16.70;100219.00;;;;344266;28;83268;-85
2022/04/29 00:03:37;;;;;;;;;;;16.30;76.90;16.70;100218.00;;;;341111;28;91013;-85
2022/04/29 00:03:49;;;;;;;;;;;16.30;76.90;16.70;100225.00;;;;341945;28;83352;-85
2022/04/29 00:04:01;;;;;;;;;;;16.30;76.90;16.70;100228.00;;;;342881;28;87271;-84
2022/04/29 00:04:12;;;;;;;;;;;16.30;77.00;16.70;100223.00;;;;343370;28;82309;-85
2022/04/29 00:04:25;;;;;;;;;;;16.30;77.00;16.80;100223.00;;;;343894;28;92985;-84
2022/04/29 00:04:38;;;;;;;;;;;16.30;77.20;16.80;100229.00;;;;346019;28;83460;-84
2022/04/29 00:04:49;;;;;;;;;;;16.30;77.40;16.70;100231.00;;;;345717;28;88444;-84
2022/04/29 00:05:02;;;;;;;;;;;16.30;77.20;16.60;100220.00;;;;342113;28;83375;-85
2022/04/29 00:05:15;;;;;;;;;;;16.30;77.20;16.60;100221.00;;;;344055;28;89726;-84
2022/04/29 00:05:30;;;;;;;;;;;16.30;77.30;16.60;100223.00;;;;346015;28;83244;-85
2022/04/29 00:05:42;;;;;;;;;;;16.30;77.00;16.60;100225.00;;;;344134;28;90345;-85
2022/04/29 00:05:55;;;;;;;;;;;16.30;76.80;16.60;100228.00;;;;341978;28;83099;-85
2022/04/29 00:06:07;;;;;;;;;;;16.30;76.60;16.60;100221.00;;;;342222;28;88378;-85
2022/04/29 00:06:19;;;;;;;;;;;16.30;76.70;16.60;100224.00;;;;344749;28;82276;-85
2022/04/29 00:06:31;;;;;;;;;;;16.30;76.60;16.60;100217.00;;;;345300;28;93515;-85
2022/04/29 00:06:43;;;;;;;;;;;16.30;76.90;16.70;100222.00;;;;344208;28;82477;-85
2022/04/29 00:06:55;;;;;;;;;;;16.30;76.90;16.70;100219.00;;;;346884;28;89080;-84
2022/04/29 00:07:07;;;;;;;;;;;16.30;76.90;16.60;100227.00;;;;346003;28;83308;-85
2022/04/29 00:07:19;;;;;;;;;;;16.30;77.20;16.60;100224.00;;;;341600;28;87809;-84
2022/04/29 00:07:31;;;;;;;;;;;16.30;77.10;16.70;100220.00;;;;343007;28;83381;-85
2022/04/29 00:07:42;;;;;;;;;;;16.30;77.00;16.70;100220.00;;;;345470;28;90785;-85
2022/04/29 00:07:54;;;;;;;;;;;16.30;77.20;16.80;100223.00;;;;343253;28;82474;-84
2022/04/29 00:08:07;;;;;;;;;;;16.30;77.40;16.90;100228.00;;;;343580;28;88019;-84
2022/04/29 00:08:20;;;;;;;;;;;16.30;77.40;16.90;100228.00;;;;343173;28;82352;-85
2022/04/29 00:08:32;;;;;;;;;;;16.30;77.40;16.80;100219.00;;;;344113;28;89866;-85
2022/04/29 00:08:43;;;;;;;;;;;16.30;77.20;16.70;100219.00;;;;344686;28;83426;-84
2022/04/29 00:08:55;;;;;;;;;;;16.30;77.40;16.70;100222.00;;;;341356;28;90419;-84
2022/04/29 00:09:07;;;;;;;;;;;16.40;77.40;16.70;100222.00;;;;343675;28;83306;-85
2022/04/29 00:09:19;;;;;;;;;;;16.30;77.40;16.60;100226.00;;;;343861;28;90697;-84
2022/04/29 00:09:31;;;;;;;;;;;16.30;77.40;16.60;100219.00;;;;344517;28;83340;-84
2022/04/29 00:09:42;;;;;;;;;;;16.30;77.40;16.60;100222.00;;;;341316;28;88974;-85
2022/04/29 00:09:54;;;;;;;;;;;16.30;77.10;16.60;100218.00;;;;345999;28;83188;-85
2022/04/29 00:10:07;;;;;;;;;;;16.30;77.00;16.60;100219.00;;;;346660;28;90604;-84
2022/04/29 00:10:19;;;;;;;;;;;16.30;77.30;16.50;100220.00;;;;343424;28;82375;-85
2022/04/29 00:10:31;;;;;;;;;;;16.30;77.80;16.50;100223.00;;;;341392;28;90120;-84
2022/04/29 00:10:43;;;;;;;;;;;16.30;77.60;16.50;100218.00;;;;344691;28;83335;-84
2022/04/29 00:10:55;;;;;;;;;;;16.30;77.30;16.50;100220.00;;;;341553;28;88505;-85
2022/04/29 00:11:07;;;;;;;;;;;16.30;77.10;16.60;100220.00;;;;340011;28;83532;-85
2022/04/29 00:11:18;;;;;;;;;;;16.30;77.00;16.60;100225.00;;;;345952;28;90551;-84
2022/04/29 00:11:30;;;;;;;;;;;16.30;77.10;16.60;100218.00;;;;345519;28;83439;-83
2022/04/29 00:11:43;;;;;;;;;;;16.30;77.10;16.60;100219.00;;;;344039;28;91342;-84
2022/04/29 00:11:55;;;;;;;;;;;16.30;77.20;16.70;100220.00;;;;342028;28;82325;-84
2022/04/29 00:12:07;;;;;;;;;;;16.30;77.30;16.70;100218.00;;;;344107;28;89036;-85
2022/04/29 00:12:19;;;;;;;;;;;16.30;77.40;16.60;100217.00;;;;346148;28;83504;-84
2022/04/29 00:12:32;;;;;;;;;;;16.30;77.20;16.60;100219.00;;;;342417;28;89810;-85
2022/04/29 00:12:48;;;;;;;;;;;16.30;77.60;16.60;100212.00;;;;344620;28;83192;-84
2022/04/29 00:13:00;;;;;;;;;;;16.30;77.20;16.70;100218.00;;;;346864;28;88762;-85
2022/04/29 00:13:14;;;;;;;;;;;16.30;77.30;16.70;100213.00;;;;346072;28;83358;-85
2022/04/29 00:13:25;;;;;;;;;;;16.30;77.30;16.60;100215.00;;;;344218;28;88346;-85
2022/04/29 00:13:37;;;;;;;;;;;16.30;77.10;16.60;100213.00;;;;346061;28;82524;-85
2022/04/29 00:13:49;;;;;;;;;;;16.30;77.20;16.60;100223.00;;;;345680;28;88380;-84
2022/04/29 00:14:01;;;;;;;;;;;16.30;77.20;16.60;100218.00;;;;342793;28;83162;-84
2022/04/29 00:14:13;;;;;;;;;;;16.30;77.40;16.60;100216.00;;;;344197;28;88271;-84
2022/04/29 00:14:25;;;;;;;;;;;16.30;77.60;16.60;100213.00;;;;347535;28;83359;-84
2022/04/29 00:14:37;;;;;;;;;;;16.30;77.50;16.60;100215.00;;;;341479;28;90525;-84
2022/04/29 00:14:49;;;;;;;;;;;16.30;77.60;16.50;100218.00;;;;341881;28;83217;-84
2022/04/29 00:15:01;;;;;;;;;;;16.30;78.00;16.50;100217.00;;;;345422;28;89979;-84
2022/04/29 00:15:14;;;;;;;;;;;16.30;77.70;16.40;100219.00;;;;343245;28;82473;-84
2022/04/29 00:15:26;;;;;;;;;;;16.20;78.00;16.30;100216.00;;;;342538;28;91802;-85
2022/04/29 00:15:38;;;;;;;;;;;16.20;78.40;16.40;100217.00;;;;342995;28;83453;-84
2022/04/29 00:15:49;;;;;;;;;;;16.20;78.40;16.40;100222.00;;;;342920;28;87673;-84
2022/04/29 00:16:01;;;;;;;;;;;16.20;78.30;16.40;100215.00;;;;343250;28;83227;-84
2022/04/29 00:16:13;;;;;;;;;;;16.20;78.20;16.50;100217.00;;;;342579;28;89162;-84
2022/04/29 00:16:26;;;;;;;;;;;16.20;78.10;16.50;100219.00;;;;341902;28;83496;-84
2022/04/29 00:16:38;;;;;;;;;;;16.20;78.10;16.50;100218.00;;;;339118;28;90242;-84
2022/04/29 00:16:50;;;;;;;;;;;16.20;78.20;16.50;100221.00;;;;345703;28;83193;-85
2022/04/29 00:17:04;;;;;;;;;;;16.20;78.00;16.60;100216.00;;;;343721;28;89603;-85
2022/04/29 00:17:16;;;;;;;;;;;16.20;78.60;16.60;100230.00;;;;341344;28;83297;-85
2022/04/29 00:17:28;;;;;;;;;;;16.20;78.10;16.60;100223.00;;;;346956;28;89484;-84
2022/04/29 00:17:40;;;;;;;;;;;16.20;78.10;16.60;100206.00;;;;344713;28;82257;-85
2022/04/29 00:17:52;;;;;;;;;;;16.20;78.10;16.60;100216.00;;;;344190;28;92340;-85
2022/04/29 00:18:04;;;;;;;;;;;16.20;77.90;16.60;100216.00;;;;345873;28;83417;-84
2022/04/29 00:18:16;;;;;;;;;;;16.20;78.00;16.40;100222.00;;;;345546;28;91090;-85
2022/04/29 00:18:28;;;;;;;;;;;16.20;78.70;16.30;100220.00;;;;344504;28;82655;-85
2022/04/29 00:18:40;;;;;;;;;;;16.20;78.70;16.30;100222.00;;;;341290;28;91609;-84
2022/04/29 00:18:52;;;;;;;;;;;16.20;78.80;16.40;100219.00;;;;342024;28;82361;-85
2022/04/29 00:19:03;;;;;;;;;;;16.20;78.50;16.50;100214.00;;;;344344;28;87755;-84
2022/04/29 00:19:16;;;;;;;;;;;16.20;78.30;16.60;100218.00;;;;344648;28;83283;-84
2022/04/29 00:19:28;;;;;;;;;;;16.20;78.30;16.50;100214.00;;;;342701;28;90749;-84
2022/04/29 00:19:40;;;;;;;;;;;16.20;78.40;16.40;100220.00;;;;343320;28;82291;-85
2022/04/29 00:19:52;;;;;;;;;;;16.20;78.60;16.40;100216.00;;;;344214;28;89271;-85
2022/04/29 00:20:05;;;;;;;;;;;16.20;78.70;16.30;100211.00;;;;345206;28;83601;-84
2022/04/29 00:20:17;;;;;;;;;;;16.20;78.90;16.30;100215.00;;;;343376;28;87788;-85
2022/04/29 00:20:29;;;;;;;;;;;16.20;79.00;16.30;100213.00;;;;344595;28;82352;-85
2022/04/29 00:20:41;;;;;;;;;;;16.20;78.70;16.30;100214.00;;;;341437;28;90396;-84
2022/04/29 00:20:52;;;;;;;;;;;16.10;78.40;16.30;100212.00;;;;345961;28;83492;-84
2022/04/29 00:21:04;;;;;;;;;;;16.10;78.70;16.30;100216.00;;;;345634;28;88863;-85
2022/04/29 00:21:16;;;;;;;;;;;16.10;78.80;16.30;100214.00;;;;343030;28;83347;-84
2022/04/29 00:21:28;;;;;;;;;;;16.10;78.80;16.30;100207.00;;;;341482;28;88476;-85
2022/04/29 00:21:43;;;;;;;;;;;16.10;78.50;16.30;100219.00;;;;344393;28;83545;-84
2022/04/29 00:21:55;;;;;;;;;;;16.10;78.20;16.30;100215.00;;;;344254;28;88648;-85
2022/04/29 00:22:07;;;;;;;;;;;16.10;78.00;16.30;100216.00;;;;344656;28;82481;-84
2022/04/29 00:22:20;;;;;;;;;;;16.10;78.10;16.30;100219.00;;;;342871;28;89699;-84
2022/04/29 00:22:32;;;;;;;;;;;16.00;78.50;16.20;100216.00;;;;343058;28;83379;-85
2022/04/29 00:22:45;;;;;;;;;;;16.10;78.90;16.20;100216.00;;;;340814;28;89146;-84
2022/04/29 00:22:57;;;;;;;;;;;16.00;79.00;16.20;100216.00;;;;343273;28;83264;-84
2022/04/29 00:23:09;;;;;;;;;;;16.00;78.50;16.30;100215.00;;;;344425;28;91289;-85
2022/04/29 00:23:21;;;;;;;;;;;16.00;78.20;16.30;100207.00;;;;344714;28;83436;-84
2022/04/29 00:23:33;;;;;;;;;;;16.00;77.90;16.30;100219.00;;;;345313;28;89503;-85
2022/04/29 00:23:44;;;;;;;;;;;16.00;78.30;16.30;100214.00;;;;343333;28;83481;-85
2022/04/29 00:23:56;;;;;;;;;;;16.00;78.30;16.30;100214.00;;;;344235;28;89539;-84
2022/04/29 00:24:12;;;;;;;;;;;16.00;78.20;16.20;100217.00;;;;343155;28;83274;-84
2022/04/29 00:24:23;;;;;;;;;;;16.00;78.40;16.30;100220.00;;;;343964;28;91087;-83
2022/04/29 00:24:35;;;;;;;;;;;16.00;78.50;16.30;100213.00;;;;344654;28;83244;-84
2022/04/29 00:24:47;;;;;;;;;;;16.00;79.20;16.30;100209.00;;;;341332;28;89911;-85
2022/04/29 00:24:59;;;;;;;;;;;16.00;78.40;16.30;100212.00;;;;344611;28;83247;-85
2022/04/29 00:25:11;;;;;;;;;;;16.00;78.30;16.40;100207.00;;;;344242;28;89524;-85
2022/04/29 00:25:23;;;;;;;;;;;16.00;78.30;16.40;100217.00;;;;341878;28;82451;-84
2022/04/29 00:25:35;;;;;;;;;;;16.00;78.50;16.40;100213.00;;;;344157;28;90205;-85
2022/04/29 00:25:47;;;;;;;;;;;16.00;78.60;16.40;100212.00;;;;347208;28;82450;-84
2022/04/29 00:25:59;;;;;;;;;;;16.00;78.50;16.40;100216.00;;;;345532;28;86580;-84
2022/04/29 00:26:10;;;;;;;;;;;16.00;78.80;16.40;100217.00;;;;344514;28;82463;-85
2022/04/29 00:26:22;;;;;;;;;;;16.00;79.10;16.30;100212.00;;;;346419;28;91997;-84
2022/04/29 00:26:35;;;;;;;;;;;16.00;79.10;16.30;100212.00;;;;344615;28;82375;-84
2022/04/29 00:26:47;;;;;;;;;;;16.00;79.20;16.30;100210.00;;;;345481;28;90280;-84
2022/04/29 00:26:59;;;;;;;;;;;16.00;79.30;16.20;100208.00;;;;344344;28;82695;-84
2022/04/29 00:27:11;;;;;;;;;;;16.00;79.10;16.10;100211.00;;;;344198;28;89245;-84
2022/04/29 00:27:23;;;;;;;;;;;16.00;79.40;16.10;100209.00;;;;344629;28;83298;-84
2022/04/29 00:27:35;;;;;;;;;;;16.00;79.60;16.10;100215.00;;;;342844;28;90278;-84
2022/04/29 00:27:47;;;;;;;;;;;15.90;79.40;16.10;100216.00;;;;343278;28;82417;-84
2022/04/29 00:27:59;;;;;;;;;;;16.00;79.10;16.20;100214.00;;;;342798;28;89204;-84
2022/04/29 00:28:11;;;;;;;;;;;16.00;79.50;16.20;100206.00;;;;343325;28;83315;-84
2022/04/29 00:28:23;;;;;;;;;;;16.00;78.90;16.20;100204.00;;;;343945;28;91342;-84
2022/04/29 00:28:35;;;;;;;;;;;15.90;78.50;16.20;100203.00;;;;344416;28;83291;-84
2022/04/29 00:28:48;;;;;;;;;;;15.90;78.50;16.30;100216.00;;;;341455;28;88755;-84
2022/04/29 00:28:59;;;;;;;;;;;16.00;78.70;16.30;100208.00;;;;342554;28;83399;-84
2022/04/29 00:29:11;;;;;;;;;;;16.00;78.90;16.30;100208.00;;;;345046;28;88984;-85
2022/04/29 00:29:23;;;;;;;;;;;15.90;79.10;16.20;100201.00;;;;342896;28;83501;-84
2022/04/29 00:29:35;;;;;;;;;;;16.00;79.40;16.20;100203.00;;;;340986;28;87846;-85
2022/04/29 00:29:47;;;;;;;;;;;15.90;79.00;16.30;100208.00;;;;343276;28;83184;-84
2022/04/29 00:29:59;;;;;;;;;;;15.90;78.80;16.30;100211.00;;;;342793;28;89403;-84
2022/04/29 00:30:11;;;;;;;;;;;15.90;78.80;16.30;100215.00;;;;344680;28;83086;-84
2022/04/29 00:30:23;;;;;;;;;;;16.00;78.90;16.30;100205.00;;;;342889;28;87837;-84
2022/04/29 00:30:35;;;;;;;;;;;15.90;78.90;16.20;100206.00;;;;344513;28;82511;-84
2022/04/29 00:30:47;;;;;;;;;;;15.90;79.50;16.20;100206.00;;;;344131;28;89276;-85
2022/04/29 00:30:59;;;;;;;;;;;15.90;79.70;16.30;100208.00;;;;346117;28;82228;-84
2022/04/29 00:31:11;;;;;;;;;;;15.90;79.20;16.20;100209.00;;;;341363;28;91955;-84
2022/04/29 00:31:23;;;;;;;;;;;15.90;78.90;16.20;100212.00;;;;341777;28;83643;-84
2022/04/29 00:31:35;;;;;;;;;;;15.90;79.30;16.20;100212.00;;;;342668;28;92005;-84
2022/04/29 00:31:47;;;;;;;;;;;15.90;79.50;16.20;100210.00;;;;347459;28;83274;-85
2022/04/29 00:31:59;;;;;;;;;;;15.90;79.70;16.10;100205.00;;;;345212;28;89249;-84
2022/04/29 00:32:11;;;;;;;;;;;15.90;79.80;16.20;100205.00;;;;343117;28;82429;-84
2022/04/29 00:32:23;;;;;;;;;;;15.90;79.70;16.20;100205.00;;;;342779;28;91542;-85
2022/04/29 00:32:35;;;;;;;;;;;15.80;79.30;16.20;100210.00;;;;345977;28;82302;-85
2022/04/29 00:32:47;;;;;;;;;;;15.90;79.20;16.10;100210.00;;;;341444;28;89723;-84
2022/04/29 00:32:59;;;;;;;;;;;15.90;79.70;16.20;100210.00;;;;344361;28;83131;-84
2022/04/29 00:33:11;;;;;;;;;;;15.90;79.70;16.30;100208.00;;;;344310;28;89444;-85
2022/04/29 00:33:23;;;;;;;;;;;15.80;80.00;16.30;100217.00;;;;342940;28;83669;-84
2022/04/29 00:33:35;;;;;;;;;;;15.90;80.10;16.30;100214.00;;;;345651;28;89098;-84
2022/04/29 00:33:47;;;;;;;;;;;15.90;80.00;16.30;100213.00;;;;346786;28;83267;-84
2022/04/29 00:33:58;;;;;;;;;;;15.90;80.00;16.30;100210.00;;;;344183;28;89329;-83
2022/04/29 00:34:10;;;;;;;;;;;15.90;80.30;16.30;100208.00;;;;344759;28;82382;-84
2022/04/29 00:34:22;;;;;;;;;;;15.90;80.20;16.30;100208.00;;;;343127;28;89228;-85
2022/04/29 00:34:34;;;;;;;;;;;15.90;80.20;16.20;100213.00;;;;340806;28;82517;-85
2022/04/29 00:34:46;;;;;;;;;;;15.90;80.20;16.30;100210.00;;;;344400;28;89193;-84
2022/04/29 00:34:58;;;;;;;;;;;15.90;80.00;16.30;100214.00;;;;347372;28;83306;-84
2022/04/29 00:35:10;;;;;;;;;;;15.90;80.10;16.30;100206.00;;;;345312;28;90827;-84
2022/04/29 00:35:22;;;;;;;;;;;15.90;80.20;16.20;100208.00;;;;344912;28;83355;-83
2022/04/29 00:35:34;;;;;;;;;;;15.90;80.30;16.30;100215.00;;;;344808;28;92242;-85
2022/04/29 00:35:46;;;;;;;;;;;15.90;80.10;16.20;100217.00;;;;344710;28;82661;-84
2022/04/29 00:35:57;;;;;;;;;;;15.90;80.20;16.10;100216.00;;;;344223;28;91206;-83
2022/04/29 00:36:09;;;;;;;;;;;15.90;80.60;16.20;100213.00;;;;347077;28;83440;-84
2022/04/29 00:36:21;;;;;;;;;;;15.90;80.60;16.10;100207.00;;;;347027;27;90389;-85
2022/04/29 00:36:33;;;;;;;;;;;15.90;81.20;16.00;100218.00;;;;347698;28;82338;-85
2022/04/29 00:36:45;;;;;;;;;;;15.90;80.80;16.10;100214.00;;;;345592;28;89899;-84
2022/04/29 00:36:57;;;;;;;;;;;15.90;80.70;16.20;100212.00;;;;344771;28;82429;-84
2022/04/29 00:37:10;;;;;;;;;;;15.80;80.50;16.10;100213.00;;;;344168;28;91971;-84
2022/04/29 00:37:22;;;;;;;;;;;15.80;80.50;16.20;100209.00;;;;346063;28;82484;-85
2022/04/29 00:37:52;;;;;;;;;;;15.80;80.50;16.10;100222.00;;;;344117;28;90129;-84
2022/04/29 00:38:04;;;;;;;;;;;15.80;80.60;16.00;100219.00;;;;343883;28;82459;-84
2022/04/29 00:38:17;;;;;;;;;;;15.90;81.10;16.20;100204.00;;;;346139;28;89623;-84
2022/04/29 00:38:28;;;;;;;;;;;15.80;80.60;16.20;100213.00;;;;345883;28;83475;-84
2022/04/29 00:38:40;;;;;;;;;;;15.80;80.60;16.10;100204.00;;;;345533;28;91785;-85
2022/04/29 00:38:52;;;;;;;;;;;15.80;80.90;16.00;100211.00;;;;344701;28;83591;-84
2022/04/29 00:39:04;;;;;;;;;;;15.80;80.70;16.00;100217.00;;;;344652;28;93365;-85
2022/04/29 00:39:23;;;;;;;;;;;15.80;80.80;15.90;100214.00;;;;347546;27;82576;-85
2022/04/29 00:39:35;;;;;;;;;;;15.80;81.30;15.90;100213.00;;;;345411;28;88860;-84
2022/04/29 00:39:47;;;;;;;;;;;15.80;81.30;16.10;100217.00;;;;346291;28;82424;-85
2022/04/29 00:39:59;;;;;;;;;;;15.80;80.80;16.10;100213.00;;;;345467;28;91489;-84
2022/04/29 00:40:13;;;;;;;;;;;15.80;80.70;16.10;100216.00;;;;344639;28;83374;-84
2022/04/29 00:40:27;;;;;;;;;;;15.80;80.60;16.20;100214.00;;;;348450;27;91205;-85
2022/04/29 00:40:39;;;;;;;;;;;15.80;80.60;16.20;100211.00;;;;347554;28;82252;-84
2022/04/29 00:40:51;;;;;;;;;;;15.80;80.70;16.10;100216.00;;;;345768;28;89591;-84
2022/04/29 00:41:03;;;;;;;;;;;15.80;80.90;16.20;100214.00;;;;344379;28;83526;-84
2022/04/29 00:41:18;;;;;;;;;;;15.80;80.80;16.10;100214.00;;;;344658;28;89873;-84
2022/04/29 00:41:30;;;;;;;;;;;15.80;80.70;16.10;100212.00;;;;344574;28;83304;-85
2022/04/29 00:41:44;;;;;;;;;;;15.80;80.80;16.00;100213.00;;;;344409;28;89121;-85
2022/04/29 00:41:56;;;;;;;;;;;15.80;80.90;16.10;100212.00;;;;344681;28;83620;-85
2022/04/29 00:42:21;;;;;;;;;;;15.80;81.10;16.10;100217.00;;;;343597;28;90370;-84
2022/04/29 00:42:33;;;;;;;;;;;15.80;80.80;16.10;100209.00;;;;344993;28;82549;-85
2022/04/29 00:42:45;;;;;;;;;;;15.80;80.80;16.20;100216.00;;;;344129;28;91762;-84
2022/04/29 00:42:57;;;;;;;;;;;15.70;80.90;16.10;100214.00;;;;346148;28;83453;-84
2022/04/29 00:43:11;;;;;;;;;;;15.80;81.20;16.00;100211.00;;;;344448;28;89525;-84
2022/04/29 00:43:23;;;;;;;;;;;15.80;81.70;16.00;100210.00;;;;347074;28;83526;-85
2022/04/29 00:43:35;;;;;;;;;;;15.70;81.80;16.00;100216.00;;;;344245;28;91719;-84
2022/04/29 00:43:46;;;;;;;;;;;15.70;81.40;16.00;100216.00;;;;347681;28;83408;-85
2022/04/29 00:44:03;;;;;;;;;;;15.70;81.60;16.00;100218.00;;;;345475;28;89610;-84
2022/04/29 00:44:15;;;;;;;;;;;15.70;81.70;16.00;100210.00;;;;342231;28;82322;-85
2022/04/29 00:44:27;;;;;;;;;;;15.70;81.70;16.10;100216.00;;;;345815;28;89271;-85
2022/04/29 00:44:40;;;;;;;;;;;15.70;81.40;16.10;100208.00;;;;345927;28;83425;-84
2022/04/29 00:44:51;;;;;;;;;;;15.70;81.90;16.00;100219.00;;;;344366;28;88074;-85
2022/04/29 00:45:03;;;;;;;;;;;15.70;81.60;15.90;100216.00;;;;343076;28;83164;-85
2022/04/29 00:45:17;;;;;;;;;;;15.70;82.20;15.80;100218.00;;;;344519;28;88080;-85
2022/04/29 00:45:29;;;;;;;;;;;15.70;82.30;16.00;100209.00;;;;343481;28;83420;-85
2022/04/29 00:45:40;;;;;;;;;;;15.70;81.90;16.00;100220.00;;;;341547;28;91544;-85
2022/04/29 00:45:53;;;;;;;;;;;15.60;82.40;16.10;100220.00;;;;341799;28;82358;-84
2022/04/29 00:46:07;;;;;;;;;;;15.60;81.90;16.00;100217.00;;;;344263;28;90331;-84
2022/04/29 00:46:19;;;;;;;;;;;15.70;81.80;16.10;100221.00;;;;344923;28;83328;-85
2022/04/29 00:46:36;;;;;;;;;;;15.70;81.70;16.00;100219.00;;;;345840;28;88376;-85
2022/04/29 00:46:49;;;;;;;;;;;15.70;81.70;16.00;100218.00;;;;346186;28;83394;-84
2022/04/29 00:47:01;;;;;;;;;;;15.70;81.80;15.90;100224.00;;;;344158;28;86860;-85
2022/04/29 00:47:15;;;;;;;;;;;15.70;82.00;15.80;100214.00;;;;346248;28;82400;-84
2022/04/29 00:47:27;;;;;;;;;;;15.60;82.50;15.80;100220.00;;;;344409;28;89148;-84
2022/04/29 00:47:39;;;;;;;;;;;15.60;82.50;15.80;100217.00;;;;342098;28;82413;-85
2022/04/29 00:47:51;;;;;;;;;;;15.60;82.90;15.70;100221.00;;;;346744;28;92349;-85
2022/04/29 00:48:03;;;;;;;;;;;15.60;82.90;15.70;100227.00;;;;347188;28;82547;-84
2022/04/29 00:48:15;;;;;;;;;;;15.60;82.70;15.60;100225.00;;;;344265;28;91773;-84
2022/04/29 00:48:27;;;;;;;;;;;15.60;82.80;15.50;100224.00;;;;344727;28;83837;-85
2022/04/29 00:48:39;;;;;;;;;;;15.60;82.80;15.50;100219.00;;;;345821;28;89573;-84
2022/04/29 00:48:51;;;;;;;;;;;15.60;83.00;15.60;100215.00;;;;344708;28;83374;-85
2022/04/29 00:49:03;;;;;;;;;;;15.50;83.00;15.70;100219.00;;;;342846;28;91321;-85
2022/04/29 00:49:16;;;;;;;;;;;15.50;83.10;15.60;100224.00;;;;344921;28;83711;-85
2022/04/29 00:49:28;;;;;;;;;;;15.50;83.60;15.60;100220.00;;;;344411;28;88640;-85
2022/04/29 00:49:39;;;;;;;;;;;15.50;83.60;15.60;100223.00;;;;343321;28;82470;-85
2022/04/29 00:49:51;;;;;;;;;;;15.50;83.30;15.50;100214.00;;;;345414;28;92383;-85
2022/04/29 00:50:04;;;;;;;;;;;15.50;83.20;15.60;100224.00;;;;348228;27;82619;-84
2022/04/29 00:50:18;;;;;;;;;;;15.50;83.10;15.70;100215.00;;;;342869;28;90838;-85
2022/04/29 00:50:29;;;;;;;;;;;15.40;82.40;15.70;100216.00;;;;346125;28;83233;-84
2022/04/29 00:50:41;;;;;;;;;;;15.40;82.70;15.60;100219.00;;;;346817;28;87766;-84
2022/04/29 00:50:54;;;;;;;;;;;15.40;83.10;15.60;100215.00;;;;344710;28;83493;-85
2022/04/29 00:51:06;;;;;;;;;;;15.40;83.00;15.70;100211.00;;;;346471;28;87939;-85
2022/04/29 00:51:17;;;;;;;;;;;15.40;82.70;15.70;100215.00;;;;346226;28;83202;-85
2022/04/29 00:51:29;;;;;;;;;;;15.40;82.50;15.70;100220.00;;;;345549;28;90399;-85
2022/04/29 00:51:44;;;;;;;;;;;15.40;82.50;15.60;100217.00;;;;344938;28;82342;-84
2022/04/29 00:51:56;;;;;;;;;;;15.40;82.80;15.60;100218.00;;;;345494;28;91174;-85
2022/04/29 00:52:12;;;;;;;;;;;15.40;83.00;15.50;100221.00;;;;346171;28;83757;-85
2022/04/29 00:52:27;;;;;;;;;;;15.40;82.90;15.50;100213.00;;;;342826;28;88827;-85
2022/04/29 00:52:41;;;;;;;;;;;15.40;82.90;15.60;100209.00;;;;343469;28;83207;-84
2022/04/29 00:52:57;;;;;;;;;;;15.40;82.90;15.50;100214.00;;;;342888;28;88612;-84
2022/04/29 00:53:11;;;;;;;;;;;15.40;83.60;15.60;100218.00;;;;343591;28;82596;-84
2022/04/29 00:53:23;;;;;;;;;;;15.40;83.20;15.70;100215.00;;;;344229;28;89019;-84
2022/04/29 00:53:35;;;;;;;;;;;15.30;83.10;15.70;100219.00;;;;346348;28;83302;-84
2022/04/29 00:53:46;;;;;;;;;;;15.30;83.10;15.60;100217.00;;;;345827;28;89502;-85
2022/04/29 00:53:58;;;;;;;;;;;15.30;83.40;15.60;100212.00;;;;344805;28;83257;-84
2022/04/29 00:54:13;;;;;;;;;;;15.30;83.50;15.60;100216.00;;;;345400;28;92922;-85
2022/04/29 00:54:28;;;;;;;;;;;15.30;83.10;15.50;100201.00;;;;344922;28;83268;-85
2022/04/29 00:54:41;;;;;;;;;;;15.30;83.60;15.40;100213.00;;;;340324;28;88366;-84
2022/04/29 00:54:56;;;;;;;;;;;15.30;83.60;15.40;100210.00;;;;344866;28;83457;-84
2022/04/29 00:55:09;;;;;;;;;;;15.30;83.60;15.40;100219.00;;;;345897;28;87779;-84
2022/04/29 00:55:22;;;;;;;;;;;15.30;84.10;15.40;100213.00;;;;343355;28;82591;-84
2022/04/29 00:55:34;;;;;;;;;;;15.30;84.20;15.40;100212.00;;;;343069;28;88404;-84
2022/04/29 00:55:46;;;;;;;;;;;15.30;84.30;15.50;100211.00;;;;344712;28;83458;-84
2022/04/29 00:55:58;;;;;;;;;;;15.30;84.20;15.40;100217.00;;;;344002;28;89822;-84
2022/04/29 00:56:10;;;;;;;;;;;15.30;84.10;15.40;100215.00;;;;345043;28;86435;-84
2022/04/29 00:56:22;;;;;;;;;;;15.30;84.20;15.40;100215.00;;;;344083;28;92797;-84
2022/04/29 00:56:36;;;;;;;;;;;15.30;84.10;15.40;100222.00;;;;346034;28;85619;-85
2022/04/29 00:56:48;;;;;;;;;;;15.30;83.90;15.50;100220.00;;;;344386;28;88243;-84
2022/04/29 00:57:00;;;;;;;;;;;15.20;83.80;15.50;100217.00;;;;346214;28;83123;-84
2022/04/29 00:57:17;;;;;;;;;;;15.20;83.60;15.40;100213.00;;;;343092;28;89193;-84
2022/04/29 00:57:33;;;;;;;;;;;15.20;84.10;15.40;100222.00;;;;346162;28;83251;-84
2022/04/29 00:57:52;;;;;;;;;;;15.20;84.10;15.40;100221.00;;;;347077;28;90681;-84
2022/04/29 00:58:10;;;;;;;;;;;15.20;83.70;15.50;100226.00;;;;347528;28;83233;-84
2022/04/29 00:58:32;;;;;;;;;;;15.20;83.70;15.60;100229.00;;;;345873;28;89085;-84
2022/04/29 00:58:44;;;;;;;;;;;15.20;83.80;15.60;100226.00;;;;342057;28;83204;-84
2022/04/29 00:59:09;;;;;;;;;;;15.20;83.90;15.50;100218.00;;;;344190;28;89712;-84
2022/04/29 00:59:44;;;;;;;;;;;15.20;84.00;15.40;100222.00;;;;348472;27;83438;-84
2022/04/29 01:00:06;;;;;;;;;;;15.20;84.50;15.50;100228.00;;;;341562;28;88678;-83
2022/04/29 01:00:18;;;;;;;;;;;15.20;83.90;15.50;100221.00;;;;344818;28;83535;-85
2022/04/29 01:00:31;;;;;;;;;;;15.20;83.90;15.60;100221.00;;;;344323;28;90535;-84
2022/04/29 01:00:43;;;;;;;;;;;15.20;83.50;15.60;100225.00;;;;344783;28;83298;-84
2022/04/29 01:00:55;;;;;;;;;;;15.20;83.60;15.60;100224.00;;;;343128;28;87919;-84
2022/04/29 01:01:07;;;;;;;;;;;15.20;83.70;15.60;100224.00;;;;344979;28;82420;-84
2022/04/29 01:01:20;;;;;;;;;;;15.20;84.30;15.50;100221.00;;;;341697;28;87799;-84
2022/04/29 01:01:34;;;;;;;;;;;15.20;84.30;15.60;100226.00;;;;345937;28;83422;-84
2022/04/29 01:01:46;;;;;;;;;;;15.20;84.00;15.70;100223.00;;;;344402;28;89130;-85
2022/04/29 01:01:58;;;;;;;;;;;15.20;83.90;15.70;100218.00;;;;341814;28;83286;-83